Time;durP1;ratioP1;P1;durP2;ratioP2;P2;SDS_P1;SDS_P2;PMS_P1;PMS_P2;Temp;Humidity;BMP_temperature;BMP_pressure;BME280_temperature;BME280_humidity;BME280_pressure;Samples;Min_cycle;Max_cycle;Signal;HPM_P1;HPM_P2
2022/04/13 00:01:30;;;;;;;13.57;6.80;;;14.00;99.90;;;;;;4959981;28;20645;-74
2022/04/13 00:03:56;;;;;;;12.10;6.05;;;14.00;99.90;;;;;;4978415;28;256683;-73
2022/04/13 00:06:22;;;;;;;11.20;6.32;;;13.90;99.90;;;;;;4950249;28;20045;-73
2022/04/13 00:08:50;;;;;;;13.93;6.28;;;13.90;99.90;;;;;;4975077;28;20082;-74
2022/04/13 00:11:18;;;;;;;12.73;6.70;;;13.80;99.90;;;;;;4943242;28;20041;-74
2022/04/13 00:13:44;;;;;;;13.60;7.10;;;13.80;99.90;;;;;;4976148;28;20049;-73
2022/04/13 00:16:10;;;;;;;15.98;7.30;;;13.70;99.90;;;;;;4944177;28;207473;-73
2022/04/13 00:18:36;;;;;;;11.90;6.75;;;13.70;99.90;;;;;;5000072;28;20054;-74
2022/04/13 00:21:02;;;;;;;13.30;6.63;;;13.70;99.90;;;;;;4961242;28;265002;-74
2022/04/13 00:23:28;;;;;;;14.48;6.65;;;13.60;99.90;;;;;;4985389;28;20049;-73
2022/04/13 00:25:54;;;;;;;14.23;7.35;;;13.60;99.90;;;;;;4957112;28;134347;-73
2022/04/13 00:28:21;;;;;;;13.88;7.30;;;13.60;99.90;;;;;;4986961;28;20126;-73
2022/04/13 00:30:47;;;;;;;13.60;6.95;;;13.60;99.90;;;;;;4964751;28;264694;-73
2022/04/13 00:33:13;;;;;;;14.15;7.40;;;13.50;99.90;;;;;;4968213;28;20054;-73
2022/04/13 00:35:39;;;;;;;14.07;7.72;;;13.50;99.90;;;;;;4948354;28;70613;-73
2022/04/13 00:38:05;;;;;;;13.25;7.38;;;13.50;99.90;;;;;;5016478;28;20628;-72
2022/04/13 00:40:32;;;;;;;13.10;7.07;;;13.50;99.90;;;;;;4952205;28;272204;-71
2022/04/13 00:42:58;;;;;;;12.88;7.25;;;13.50;99.90;;;;;;4978450;28;20057;-72
2022/04/13 00:45:24;;;;;;;16.55;8.30;;;13.40;99.90;;;;;;4982818;28;258266;-72
2022/04/13 00:47:50;;;;;;;14.43;7.85;;;13.40;99.90;;;;;;4967933;28;20037;-73
2022/04/13 00:50:16;;;;;;;15.40;8.10;;;13.40;99.90;;;;;;4990360;28;41376;-72
2022/04/13 00:52:45;;;;;;;15.27;8.30;;;13.40;99.90;;;;;;4952685;28;20630;-73
2022/04/13 00:55:14;;;;;;;14.02;7.97;;;13.40;99.90;;;;;;4984788;28;235057;-72
2022/04/13 00:57:41;;;;;;;15.32;8.75;;;13.40;99.90;;;;;;4956100;28;20463;-72
2022/04/13 01:00:10;;;;;;;14.00;7.97;;;13.40;99.90;;;;;;4994330;28;136990;-72
2022/04/13 01:02:37;;;;;;;22.60;8.98;;;13.30;99.90;;;;;;4947261;28;20046;-72
2022/04/13 01:05:05;;;;;;;15.13;8.32;;;13.30;99.90;;;;;;4962312;28;237188;-72
2022/04/13 01:07:32;;;;;;;18.98;9.27;;;13.30;99.90;;;;;;4948356;28;20034;-72
2022/04/13 01:10:00;;;;;;;14.15;8.38;;;13.20;99.90;;;;;;5001856;28;228927;-72
2022/04/13 01:12:27;;;;;;;18.73;8.90;;;13.20;99.90;;;;;;4965569;28;20461;-72
2022/04/13 01:14:53;;;;;;;14.40;7.97;;;13.20;99.90;;;;;;4969971;28;219730;-74
2022/04/13 01:17:20;;;;;;;15.95;9.07;;;13.10;99.90;;;;;;4943060;28;20407;-71
2022/04/13 01:19:46;;;;;;;15.20;8.02;;;13.10;99.90;;;;;;4987869;28;257280;-72
2022/04/13 01:22:20;;;;;;;14.05;7.95;;;13.10;99.90;;;;;;4933727;28;20054;-72
2022/04/13 01:24:47;;;;;;;16.15;8.55;;;13.00;99.90;;;;;;4977727;28;191205;-72
2022/04/13 01:27:16;;;;;;;18.17;8.93;;;13.00;99.90;;;;;;4950339;28;20050;-72
2022/04/13 01:29:43;;;;;;;15.20;8.70;;;13.00;99.90;;;;;;4984596;28;53388;-72
2022/04/13 01:32:11;;;;;;;15.70;8.60;;;12.90;99.90;;;;;;4938674;28;20038;-72
2022/04/13 01:34:45;;;;;;;17.77;8.30;;;12.90;99.90;;;;;;4966347;28;220904;-72
2022/04/13 01:37:11;;;;;;;14.63;8.55;;;12.90;99.90;;;;;;4971854;28;20049;-73
2022/04/13 01:39:37;;;;;;;13.73;8.25;;;12.90;99.90;;;;;;4981154;28;255177;-72
2022/04/13 01:42:04;;;;;;;17.20;9.18;;;12.80;99.90;;;;;;4958662;28;20510;-72
2022/04/13 01:44:30;;;;;;;14.23;7.75;;;12.80;99.90;;;;;;4973740;28;264106;-72
2022/04/13 01:46:56;;;;;;;15.60;8.90;;;12.80;99.90;;;;;;4942564;28;20045;-72
2022/04/13 01:49:23;;;;;;;14.73;8.65;;;12.70;99.90;;;;;;4993031;28;55906;-72
2022/04/13 01:51:49;;;;;;;14.43;8.88;;;12.60;99.90;;;;;;4986405;28;20453;-75
2022/04/13 01:54:15;;;;;;;15.60;8.80;;;12.60;99.90;;;;;;4988462;28;135129;-74
2022/04/13 01:56:41;;;;;;;16.95;8.63;;;12.60;99.90;;;;;;4976857;28;20045;-74
2022/04/13 01:59:07;;;;;;;17.20;9.03;;;12.60;99.90;;;;;;4968773;28;271501;-74
2022/04/13 02:01:35;;;;;;;14.88;9.07;;;12.50;99.90;;;;;;4940163;28;20067;-74
2022/04/13 02:04:01;;;;;;;15.63;8.32;;;12.50;99.90;;;;;;4941899;28;272282;-74
2022/04/13 02:06:28;;;;;;;18.02;9.00;;;12.50;99.90;;;;;;4958916;28;20046;-75
2022/04/13 02:08:54;;;;;;;17.20;9.50;;;12.40;99.90;;;;;;4979425;28;267955;-77
2022/04/13 02:11:20;;;;;;;15.73;9.40;;;12.40;99.90;;;;;;4975574;28;20716;-74
2022/04/13 02:13:46;;;;;;;16.88;9.35;;;12.40;99.90;;;;;;5016460;28;20038;-74
2022/04/13 02:16:12;;;;;;;14.10;8.50;;;12.40;99.90;;;;;;4934707;28;70584;-75
2022/04/13 02:18:40;;;;;;;18.20;10.45;;;12.30;99.90;;;;;;4969603;28;20447;-76
2022/04/13 02:21:06;;;;;;;15.40;9.35;;;12.30;99.90;;;;;;4944582;28;54773;-75
2022/04/13 02:23:32;;;;;;;16.73;9.50;;;12.30;99.90;;;;;;4993478;28;20072;-75
2022/04/13 02:25:58;;;;;;;16.58;9.65;;;12.30;99.90;;;;;;4956777;28;209057;-74
2022/04/13 02:28:24;;;;;;;18.65;10.45;;;12.30;99.90;;;;;;4995940;28;20049;-75
2022/04/13 02:30:50;;;;;;;17.45;10.13;;;12.30;99.90;;;;;;4971406;28;262780;-75
2022/04/13 02:33:16;;;;;;;19.33;10.98;;;12.30;99.90;;;;;;5003440;28;20069;-75
2022/04/13 02:35:42;;;;;;;18.13;10.40;;;12.20;99.90;;;;;;4946248;28;129853;-75
2022/04/13 02:38:09;;;;;;;16.50;9.68;;;12.20;99.90;;;;;;5005993;28;20042;-75
2022/04/13 02:40:35;;;;;;;17.58;10.02;;;12.20;99.90;;;;;;4959363;28;77710;-74
2022/04/13 02:43:01;;;;;;;17.55;10.38;;;12.20;99.90;;;;;;4975298;28;20074;-74
2022/04/13 02:45:27;;;;;;;18.55;11.05;;;12.20;99.90;;;;;;4973992;28;143834;-74
2022/04/13 02:47:54;;;;;;;15.98;9.75;;;12.20;99.90;;;;;;4983098;28;20061;-75
2022/04/13 02:50:20;;;;;;;21.90;11.50;;;12.20;99.90;;;;;;4977279;28;158228;-75
2022/04/13 02:52:46;;;;;;;17.13;10.13;;;12.20;99.90;;;;;;4990687;28;20054;-76
2022/04/13 02:55:12;;;;;;;17.05;10.18;;;12.20;99.90;;;;;;4986724;28;211292;-74
2022/04/13 02:57:39;;;;;;;19.15;11.10;;;12.20;99.90;;;;;;4952554;28;20053;-75
2022/04/13 03:00:06;;;;;;;18.17;11.55;;;12.20;99.90;;;;;;4983245;28;256998;-75
2022/04/13 03:02:32;;;;;;;20.25;10.45;;;12.20;99.90;;;;;;4986370;28;20061;-74
2022/04/13 03:04:58;;;;;;;17.98;11.77;;;12.20;99.90;;;;;;4951659;28;131305;-74
2022/04/13 03:07:26;;;;;;;18.38;10.88;;;12.20;99.90;;;;;;4965517;28;20045;-74
2022/04/13 03:09:53;;;;;;;18.85;11.10;;;12.20;99.90;;;;;;5003309;28;209875;-75
2022/04/13 03:12:19;;;;;;;19.30;11.65;;;12.20;99.90;;;;;;4964141;28;20050;-74
2022/04/13 03:14:45;;;;;;;21.75;12.02;;;12.20;99.90;;;;;;4983887;28;126280;-74
2022/04/13 03:17:11;;;;;;;23.38;11.57;;;12.20;99.90;;;;;;4957879;28;20050;-75
2022/04/13 03:19:37;;;;;;;19.80;11.27;;;12.20;99.90;;;;;;4979494;28;240060;-74
2022/04/13 03:22:03;;;;;;;22.98;11.95;;;12.20;99.90;;;;;;4955427;28;20435;-74
2022/04/13 03:24:29;;;;;;;21.20;12.05;;;12.10;99.90;;;;;;4972647;28;82045;-74
2022/04/13 03:26:56;;;;;;;25.88;11.40;;;12.10;99.90;;;;;;4975883;28;20041;-74
2022/04/13 03:29:23;;;;;;;21.25;11.68;;;12.10;99.90;;;;;;4987098;28;268479;-74
2022/04/13 03:31:49;;;;;;;21.45;12.25;;;12.10;99.90;;;;;;4938509;28;20046;-75
2022/04/13 03:34:20;;;;;;;17.00;10.35;;;12.10;99.90;;;;;;4983389;28;261214;-74
2022/04/13 03:36:50;;;;;;;19.92;10.60;;;12.10;99.90;;;;;;4966184;28;20053;-74
2022/04/13 03:39:16;;;;;;;21.10;11.68;;;12.00;99.90;;;;;;4986831;28;113007;-74
2022/04/13 03:41:43;;;;;;;19.67;11.75;;;12.00;99.90;;;;;;4959720;28;20133;-75
2022/04/13 03:44:09;;;;;;;17.48;11.25;;;11.90;99.90;;;;;;5004160;28;277483;-75
2022/04/13 03:46:36;;;;;;;20.27;11.73;;;11.90;99.90;;;;;;4985580;28;20475;-75
2022/04/13 03:49:02;;;;;;;19.40;11.13;;;11.90;99.90;;;;;;4963730;28;273716;-75
2022/04/13 03:51:28;;;;;;;18.42;11.45;;;11.80;99.90;;;;;;4966158;28;20057;-75
2022/04/13 03:53:54;;;;;;;21.05;12.85;;;11.80;99.90;;;;;;4976910;28;258776;-75
2022/04/13 03:56:20;;;;;;;20.92;12.65;;;11.80;99.90;;;;;;4967234;28;20454;-74
2022/04/13 03:58:46;;;;;;;29.55;12.60;;;11.80;99.90;;;;;;4975366;28;20069;-75
2022/04/13 04:01:12;;;;;;;22.77;12.85;;;11.80;99.90;;;;;;4949487;28;205786;-74
2022/04/13 04:03:39;;;;;;;22.42;13.15;;;11.80;99.90;;;;;;4992138;28;20069;-74
2022/04/13 04:06:05;;;;;;;20.17;12.48;;;11.80;99.90;;;;;;4931990;28;128738;-75
2022/04/13 04:08:35;;;;;;;23.23;13.35;;;11.80;99.90;;;;;;4975338;28;20056;-74
2022/04/13 04:11:02;;;;;;;22.58;14.18;;;11.80;99.90;;;;;;4932790;28;20052;-73
2022/04/13 04:13:28;;;;;;;23.95;13.77;;;11.80;99.90;;;;;;5013561;28;20054;-75
2022/04/13 04:15:54;;;;;;;23.38;13.23;;;11.80;99.90;;;;;;4954443;28;264350;-76
2022/04/13 04:18:20;;;;;;;21.85;13.70;;;11.90;99.90;;;;;;4988338;28;20061;-74
2022/04/13 04:20:46;;;;;;;25.13;14.48;;;11.90;99.90;;;;;;4963296;28;115969;-75
2022/04/13 04:23:12;;;;;;;22.00;14.02;;;11.80;99.90;;;;;;4987851;28;20053;-75
2022/04/13 04:25:38;;;;;;;24.90;14.02;;;11.90;99.90;;;;;;4958614;28;252734;-74
2022/04/13 04:28:06;;;;;;;25.50;14.73;;;11.90;99.90;;;;;;5005710;28;20057;-74
2022/04/13 04:30:32;;;;;;;26.02;14.10;;;11.90;99.90;;;;;;4952755;28;279830;-72
2022/04/13 04:32:58;;;;;;;26.67;14.55;;;11.90;99.90;;;;;;5013981;28;20046;-72
2022/04/13 04:35:24;;;;;;;24.90;14.00;;;11.90;99.90;;;;;;4987084;28;213900;-72
2022/04/13 04:37:51;;;;;;;28.42;14.15;;;11.90;99.90;;;;;;4951189;28;20050;-73
2022/04/13 04:40:17;;;;;;;24.02;14.15;;;11.90;99.90;;;;;;4991941;28;268099;-72
2022/04/13 04:42:46;;;;;;;23.10;14.15;;;11.90;99.90;;;;;;4934588;28;20064;-73
2022/04/13 04:45:19;;;;;;;27.30;13.23;;;11.90;99.90;;;;;;4980560;28;272908;-72
2022/04/13 04:47:49;;;;;;;26.27;14.10;;;11.90;99.90;;;;;;4964121;28;20057;-73
2022/04/13 04:50:19;;;;;;;23.30;13.03;;;11.90;99.90;;;;;;4992018;28;238076;-72
2022/04/13 04:52:46;;;;;;;21.63;14.30;;;11.80;99.90;;;;;;4963053;28;20045;-72
2022/04/13 04:55:19;;;;;;;25.67;14.10;;;11.90;99.90;;;;;;4981746;28;250719;-72
2022/04/13 04:57:46;;;;;;;23.70;13.77;;;11.90;99.90;;;;;;4967959;28;20117;-72
2022/04/13 05:00:17;;;;;;;21.58;13.65;;;11.90;99.90;;;;;;5003775;28;113642;-73
2022/04/13 05:02:45;;;;;;;24.08;13.48;;;11.90;99.90;;;;;;4952624;28;20491;-73
2022/04/13 05:05:13;;;;;;;22.77;14.05;;;11.90;99.90;;;;;;4964270;28;193215;-73
2022/04/13 05:07:40;;;;;;;24.98;14.18;;;11.90;99.90;;;;;;4967389;28;20056;-72
2022/04/13 05:10:07;;;;;;;26.23;13.75;;;11.90;99.90;;;;;;4993506;28;253887;-72
2022/04/13 05:12:46;;;;;;;23.60;14.68;;;11.90;99.90;;;;;;4943072;28;20058;-72
2022/04/13 05:15:12;;;;;;;27.00;14.07;;;11.90;99.90;;;;;;4981455;28;266039;-72
2022/04/13 05:17:39;;;;;;;21.98;13.98;;;12.00;99.90;;;;;;4962564;28;20045;-73
2022/04/13 05:20:07;;;;;;;22.17;13.10;;;12.00;99.90;;;;;;4982907;28;266591;-73
2022/04/13 05:22:34;;;;;;;22.90;13.88;;;12.00;99.90;;;;;;4948542;28;20045;-72
2022/04/13 05:25:07;;;;;;;22.30;14.23;;;12.00;99.90;;;;;;4987297;28;139983;-73
2022/04/13 05:27:34;;;;;;;25.25;14.13;;;12.00;99.90;;;;;;4971433;28;20135;-72
2022/04/13 05:30:00;;;;;;;27.67;14.57;;;12.00;99.90;;;;;;4978255;28;126794;-73
2022/04/13 05:32:27;;;;;;;21.58;14.00;;;12.00;99.90;;;;;;4946322;28;20054;-72
2022/04/13 05:35:00;;;;;;;25.83;15.20;;;12.00;99.90;;;;;;4981503;28;268034;-72
2022/04/13 05:37:27;;;;;;;23.35;14.52;;;12.00;99.90;;;;;;4951653;28;20057;-72
2022/04/13 05:39:53;;;;;;;26.83;15.07;;;12.00;99.90;;;;;;4982116;28;163995;-72
2022/04/13 05:42:22;;;;;;;24.55;14.88;;;11.90;99.90;;;;;;4972980;28;20037;-72
2022/04/13 05:44:48;;;;;;;25.17;15.68;;;11.90;99.90;;;;;;4964943;28;162733;-73
2022/04/13 05:47:14;;;;;;;28.67;15.65;;;12.00;99.90;;;;;;4947709;28;20066;-73
2022/04/13 05:49:40;;;;;;;27.85;15.77;;;12.00;99.90;;;;;;4986826;28;93733;-72
2022/04/13 05:52:07;;;;;;;28.42;15.93;;;12.00;99.90;;;;;;4990531;28;20044;-73
2022/04/13 05:54:33;;;;;;;26.00;15.98;;;12.00;99.90;;;;;;4987823;28;20061;-73
2022/04/13 05:56:59;;;;;;;30.75;15.65;;;12.00;99.90;;;;;;4963631;28;20049;-71
2022/04/13 05:59:25;;;;;;;29.15;17.20;;;12.10;99.90;;;;;;4988476;28;268256;-71
2022/04/13 06:01:51;;;;;;;31.25;16.77;;;12.10;99.90;;;;;;4948476;28;20096;-72
2022/04/13 06:04:17;;;;;;;25.98;16.73;;;12.10;99.90;;;;;;4970507;28;132398;-72
2022/04/13 06:06:44;;;;;;;27.23;16.50;;;12.20;99.90;;;;;;4953697;28;20058;-71
2022/04/13 06:09:10;;;;;;;30.70;17.20;;;12.20;99.90;;;;;;4985906;28;266245;-71
2022/04/13 06:11:36;;;;;;;29.30;17.48;;;12.40;99.90;;;;;;4959842;28;20069;-71
2022/04/13 06:14:02;;;;;;;27.27;16.00;;;12.50;99.90;;;;;;4979660;28;252993;-72
2022/04/13 06:16:28;;;;;;;30.17;16.77;;;12.60;99.90;;;;;;4952345;28;20046;-71
2022/04/13 06:18:55;;;;;;;26.98;16.60;;;12.80;99.90;;;;;;4967619;28;263578;-71
2022/04/13 06:21:21;;;;;;;28.80;16.80;;;12.90;99.90;;;;;;4982758;28;20049;-71
2022/04/13 06:23:47;;;;;;;29.48;17.10;;;13.00;99.90;;;;;;5002482;28;20256;-72
2022/04/13 06:26:13;;;;;;;30.20;17.33;;;13.10;99.90;;;;;;4970640;28;73005;-72
2022/04/13 06:28:40;;;;;;;27.23;17.20;;;13.20;99.90;;;;;;4989501;28;20077;-71
2022/04/13 06:31:06;;;;;;;30.23;17.90;;;13.30;99.90;;;;;;4943846;28;152037;-71
2022/04/13 06:33:32;;;;;;;29.50;18.08;;;13.30;99.90;;;;;;4998572;28;20148;-71
2022/04/13 06:35:58;;;;;;;27.58;17.55;;;13.30;99.90;;;;;;4958608;28;167868;-71
2022/04/13 06:38:24;;;;;;;28.73;17.77;;;13.40;99.90;;;;;;5013465;28;20038;-71
2022/04/13 06:40:50;;;;;;;30.25;17.55;;;13.50;99.90;;;;;;4950931;28;220210;-72
2022/04/13 06:43:16;;;;;;;29.00;17.48;;;13.50;99.90;;;;;;4996895;28;20030;-71
2022/04/13 06:45:43;;;;;;;27.80;17.98;;;13.60;99.90;;;;;;4941842;28;153069;-71
2022/04/13 06:48:09;;;;;;;29.65;17.50;;;13.70;99.90;;;;;;4988312;28;20057;-71
2022/04/13 06:50:36;;;;;;;28.83;18.33;;;13.70;99.90;;;;;;4954501;28;265532;-72
2022/04/13 06:53:02;;;;;;;26.17;18.30;;;13.70;99.90;;;;;;5000942;28;20054;-71
2022/04/13 06:55:28;;;;;;;33.28;17.77;;;13.70;99.90;;;;;;4978255;28;124860;-71
2022/04/13 06:57:55;;;;;;;27.85;17.60;;;13.70;99.90;;;;;;4976365;28;20046;-72
2022/04/13 07:00:22;;;;;;;29.13;17.40;;;13.80;99.90;;;;;;4983188;28;277588;-71
2022/04/13 07:02:48;;;;;;;29.77;18.02;;;13.90;99.90;;;;;;4967742;28;20064;-71
2022/04/13 07:05:15;;;;;;;32.35;16.70;;;14.10;99.90;;;;;;4968100;28;252893;-71
2022/04/13 07:07:41;;;;;;;30.20;17.25;;;14.50;99.90;;;;;;4960487;28;20049;-72
2022/04/13 07:10:07;;;;;;;30.42;17.35;;;14.90;99.90;;;;;;4992749;28;269485;-72
2022/04/13 07:12:35;;;;;;;25.10;16.90;;;15.20;99.90;;;;;;4960887;28;20041;-71
2022/04/13 07:15:02;;;;;;;27.25;16.67;;;15.30;99.90;;;;;;4989918;28;259192;-72
2022/04/13 07:17:28;;;;;;;23.90;15.65;;;15.40;99.90;;;;;;4951653;28;20348;-72
2022/04/13 07:19:54;;;;;;;25.98;14.25;;;15.40;99.90;;;;;;5005389;28;261967;-72
2022/04/13 07:22:20;;;;;;;21.60;14.48;;;15.60;99.90;;;;;;4989795;28;20285;-72
2022/04/13 07:24:46;;;;;;;24.25;14.48;;;15.70;99.90;;;;;;4989200;28;180510;-72
2022/04/13 07:27:12;;;;;;;21.88;12.63;;;16.00;99.90;;;;;;4958320;28;20541;-72
2022/04/13 07:29:39;;;;;;;22.48;13.48;;;16.30;99.90;;;;;;4987989;28;262941;-70
2022/04/13 07:32:06;;;;;;;20.23;13.15;;;16.20;99.90;;;;;;4961582;28;20041;-70
2022/04/13 07:34:33;;;;;;;24.05;12.75;;;16.00;99.90;;;;;;4965208;28;228570;-71
2022/04/13 07:36:59;;;;;;;25.25;12.82;;;15.80;99.90;;;;;;4964864;28;20041;-71
2022/04/13 07:39:25;;;;;;;22.83;11.60;;;15.70;99.90;;;;;;4984985;28;63799;-72
2022/04/13 07:41:51;;;;;;;18.67;10.77;;;15.60;99.90;;;;;;4958395;28;20045;-73
2022/04/13 07:44:18;;;;;;;21.75;9.90;;;15.50;99.90;;;;;;4990739;28;252035;-72
2022/04/13 07:46:44;;;;;;;16.98;9.90;;;15.50;99.90;;;;;;4964797;28;20030;-73
2022/04/13 07:49:10;;;;;;;19.95;10.18;;;15.50;99.90;;;;;;4980916;28;269688;-72
2022/04/13 07:51:39;;;;;;;21.50;10.20;;;15.50;99.90;;;;;;4993356;28;20035;-73
2022/04/13 07:54:05;;;;;;;20.95;9.82;;;15.40;99.90;;;;;;4992727;28;255857;-73
2022/04/13 07:56:31;;;;;;;20.00;10.25;;;15.30;99.90;;;;;;4979243;28;20514;-72
2022/04/13 07:58:57;;;;;;;19.37;10.20;;;15.20;99.90;;;;;;4986981;28;252789;-72
2022/04/13 08:01:24;;;;;;;22.35;10.80;;;15.10;99.90;;;;;;4972422;28;20441;-72
2022/04/13 08:03:50;;;;;;;23.98;10.52;;;15.10;99.90;;;;;;5002005;28;20049;-72
2022/04/13 08:06:16;;;;;;;19.23;10.05;;;15.10;99.90;;;;;;4925436;28;130339;-72
2022/04/13 08:08:42;;;;;;;20.95;10.77;;;15.10;99.90;;;;;;5000471;28;20049;-73
2022/04/13 08:11:08;;;;;;;21.80;10.48;;;15.20;99.90;;;;;;4945086;28;97371;-73
2022/04/13 08:13:34;;;;;;;20.25;9.65;;;15.20;99.90;;;;;;5002295;28;20069;-72
2022/04/13 08:16:01;;;;;;;19.58;10.05;;;15.30;99.90;;;;;;4972240;28;255383;-73
2022/04/13 08:18:27;;;;;;;19.02;9.95;;;15.40;99.90;;;;;;5000000;28;20068;-73
2022/04/13 08:20:53;;;;;;;17.88;9.45;;;15.50;99.90;;;;;;4971269;28;250918;-74
2022/04/13 08:23:19;;;;;;;18.60;10.07;;;15.60;99.90;;;;;;5009689;28;20060;-74
2022/04/13 08:25:45;;;;;;;18.73;9.75;;;15.60;99.90;;;;;;4966294;28;260748;-74
2022/04/13 08:28:11;;;;;;;17.13;9.65;;;15.80;99.90;;;;;;5002037;28;20487;-73
2022/04/13 08:30:37;;;;;;;17.65;9.63;;;15.90;99.90;;;;;;4961849;28;64655;-73
2022/04/13 08:33:03;;;;;;;19.63;9.75;;;16.20;99.90;;;;;;5015300;28;20038;-73
2022/04/13 08:35:29;;;;;;;19.25;9.85;;;16.30;99.90;;;;;;4953866;28;198622;-74
2022/04/13 08:37:56;;;;;;;18.52;9.40;;;16.60;99.90;;;;;;5007205;28;20045;-73
2022/04/13 08:40:22;;;;;;;17.23;8.82;;;16.80;99.90;;;;;;4967627;28;81812;-74
2022/04/13 08:43:04;;;;;;;20.98;9.20;;;17.20;99.90;;;;;;4968397;28;20052;-76
2022/04/13 08:45:34;;;;;;;17.60;8.02;;;17.50;99.90;;;;;;4945168;28;23379;-74
2022/04/13 08:48:04;;;;;;;16.00;7.78;;;17.90;99.90;;;;;;4976067;28;20038;-76
2022/04/13 08:50:31;;;;;;;20.30;7.90;;;18.20;99.90;;;;;;4950331;28;143558;-74
2022/04/13 08:53:04;;;;;;;15.98;7.43;;;18.50;99.90;;;;;;5015863;28;20050;-75
2022/04/13 08:55:32;;;;;;;15.05;7.53;;;18.70;99.90;;;;;;4973274;28;256438;-77
2022/04/13 08:58:09;;;;;;;14.80;7.05;;;18.80;99.90;;;;;;4985305;28;20065;-73
2022/04/13 09:00:40;;;;;;;15.63;7.00;;;18.70;99.90;;;;;;4974062;28;145074;-73
2022/04/13 09:03:15;;;;;;;16.88;6.53;;;18.70;99.90;;;;;;5012939;28;20058;-74
2022/04/13 09:05:43;;;;;;;13.77;6.05;;;18.60;99.90;;;;;;4941675;28;263476;-74
2022/04/13 09:08:23;;;;;;;13.82;6.30;;;18.60;99.90;;;;;;5013883;28;20056;-73
2022/04/13 09:10:52;;;;;;;17.05;7.45;;;18.80;99.90;;;;;;4969569;28;262536;-73
2022/04/13 09:13:24;;;;;;;14.98;6.72;;;19.20;99.90;;;;;;4996637;28;20050;-73
2022/04/13 09:15:51;;;;;;;13.73;6.40;;;19.50;99.90;;;;;;4970532;28;239685;-74
2022/04/13 09:18:17;;;;;;;16.85;6.80;;;19.60;99.90;;;;;;4999395;28;20054;-73
2022/04/13 09:20:44;;;;;;;13.85;5.93;;;19.80;99.90;;;;;;4947622;28;158339;-73
2022/04/13 09:23:12;;;;;;;11.82;5.70;;;20.10;99.90;;;;;;5000814;28;20050;-75
2022/04/13 09:25:40;;;;;;;11.73;5.43;;;20.40;99.90;;;;;;4957990;28;157345;-74
2022/04/13 09:28:06;;;;;;;11.90;5.53;;;20.40;99.90;;;;;;4998033;28;21220;-74
2022/04/13 09:30:33;;;;;;;14.00;5.80;;;20.60;99.90;;;;;;4940211;28;248291;-74
2022/04/13 09:33:01;;;;;;;14.88;5.70;;;20.90;99.50;;;;;;4997573;28;20050;-74
2022/04/13 09:35:31;;;;;;;12.55;5.07;;;21.40;99.20;;;;;;4982830;28;260539;-74
2022/04/13 09:38:04;;;;;;;14.57;4.80;;;21.50;99.00;;;;;;4964503;28;20046;-73
2022/04/13 09:40:40;;;;;;;10.43;3.83;;;21.70;98.00;;;;;;4970127;28;33311;-72
2022/04/13 09:43:07;;;;;;;11.93;4.20;;;21.60;96.80;;;;;;5003014;28;20045;-74
2022/04/13 09:45:43;;;;;;;12.68;4.78;;;21.80;96.70;;;;;;4950703;28;260314;-73
2022/04/13 09:48:15;;;;;;;12.95;4.30;;;22.00;96.10;;;;;;4997370;28;20058;-74
2022/04/13 09:50:44;;;;;;;11.70;4.60;;;22.20;96.10;;;;;;4955573;28;113622;-74
2022/04/13 09:53:12;;;;;;;13.50;4.32;;;22.30;95.60;;;;;;5014251;28;20053;-74
2022/04/13 09:55:40;;;;;;;13.18;4.35;;;22.60;95.20;;;;;;4960026;28;97169;-74
2022/04/13 09:58:09;;;;;;;11.98;4.20;;;23.00;93.80;;;;;;4993124;28;20053;-74
2022/04/13 10:00:36;;;;;;;10.45;4.07;;;23.20;93.30;;;;;;4952285;28;96976;-74
2022/04/13 10:03:13;;;;;;;10.23;3.83;;;22.90;93.10;;;;;;4968554;28;20057;-74
2022/04/13 10:05:44;;;;;;;11.77;3.95;;;23.20;93.60;;;;;;4948291;28;198995;-74
2022/04/13 10:08:13;;;;;;;12.90;4.20;;;23.60;92.30;;;;;;5016755;28;20061;-75
2022/04/13 10:10:44;;;;;;;12.23;3.97;;;23.80;91.00;;;;;;4954938;28;266095;-74
2022/04/13 10:13:11;;;;;;;11.85;4.50;;;23.90;90.40;;;;;;4980490;28;20046;-74
2022/04/13 10:15:37;;;;;;;12.07;4.13;;;23.70;88.60;;;;;;4943406;28;200504;-73
2022/04/13 10:18:05;;;;;;;12.38;3.90;;;23.40;86.90;;;;;;5013175;28;20050;-74
2022/04/13 10:20:44;;;;;;;11.82;3.95;;;23.10;88.00;;;;;;4973279;28;276575;-74
2022/04/13 10:23:10;;;;;;;12.73;4.10;;;23.10;88.30;;;;;;4992957;28;20573;-76
2022/04/13 10:25:37;;;;;;;10.48;3.60;;;23.00;86.30;;;;;;4954019;28;226017;-75
2022/04/13 10:28:03;;;;;;;10.57;3.97;;;23.00;87.10;;;;;;4979209;28;20046;-75
2022/04/13 10:30:35;;;;;;;10.65;3.20;;;23.40;86.60;;;;;;4967486;28;257623;-74
2022/04/13 10:33:07;;;;;;;7.80;2.50;;;23.80;81.00;;;;;;4973080;28;20254;-74
2022/04/13 10:35:41;;;;;;;10.45;2.58;;;23.80;78.40;;;;;;4935087;28;64295;-75
2022/04/13 10:38:08;;;;;;;8.75;2.65;;;23.80;77.10;;;;;;5008284;28;20046;-75
2022/04/13 10:40:40;;;;;;;9.95;3.00;;;23.90;76.60;;;;;;4979374;28;40103;-74
2022/04/13 10:43:08;;;;;;;11.63;2.80;;;24.10;76.50;;;;;;5002803;28;20054;-73
2022/04/13 10:45:38;;;;;;;10.05;3.25;;;24.20;74.10;;;;;;4967478;28;269357;-74
2022/04/13 10:48:09;;;;;;;9.10;2.70;;;24.60;76.00;;;;;;5020583;28;20481;-73
2022/04/13 10:50:49;;;;;;;9.60;2.40;;;24.50;71.00;;;;;;4954090;28;269894;-72
2022/04/13 10:53:15;;;;;;;9.73;2.42;;;24.20;69.80;;;;;;5001026;28;20065;-72
2022/04/13 10:55:42;;;;;;;11.85;2.55;;;23.90;71.30;;;;;;4958939;28;186187;-73
2022/04/13 10:58:18;;;;;;;9.70;2.25;;;24.20;70.90;;;;;;5003723;28;20033;-73
2022/04/13 11:00:52;;;;;;;8.23;2.03;;;24.10;68.30;;;;;;4948962;28;92863;-72
2022/04/13 11:03:19;;;;;;;9.48;2.40;;;23.80;66.00;;;;;;5017953;28;20494;-73
2022/04/13 11:05:46;;;;;;;9.80;2.40;;;23.60;69.20;;;;;;4950104;28;446157;-71
2022/04/13 11:08:35;;;;;;;10.68;2.60;;;23.50;68.70;;;;;;4980185;28;20053;-71
2022/04/13 11:11:01;;;;;;;11.07;2.70;;;23.40;70.60;;;;;;4951708;28;89112;-71
2022/04/13 11:13:34;;;;;;;9.13;2.92;;;23.40;70.00;;;;;;4990639;28;20050;-71
2022/04/13 11:16:21;;;;;;;11.43;3.15;;;23.30;70.00;;;;;;4953433;28;230367;-71
2022/04/13 11:19:05;;;;;;;9.52;2.58;;;22.60;71.30;;;;;;5005874;28;20089;-72
2022/04/13 11:21:32;;;;;;;9.07;2.30;;;22.60;71.90;;;;;;4974608;28;20454;-74
2022/04/13 11:23:59;;;;;;;9.43;2.37;;;22.80;71.20;;;;;;4948374;28;1122030;-74
2022/04/13 11:26:26;;;;;;;9.27;2.08;;;23.30;71.90;;;;;;4989559;28;20049;-74
2022/04/13 11:29:15;;;;;;;8.15;2.10;;;23.40;69.30;;;;;;4978433;28;274629;-73
2022/04/13 11:31:59;;;;;;;12.07;2.50;;;23.30;68.20;;;;;;4978200;28;20052;-72
2022/04/13 11:34:29;;;;;;;12.52;2.60;;;22.50;68.50;;;;;;4987995;28;225536;-74
2022/04/13 11:37:00;;;;;;;9.38;2.30;;;22.10;70.50;;;;;;4992168;28;20053;-74
2022/04/13 11:39:57;;;;;;;9.10;3.00;;;21.70;70.40;;;;;;4984196;28;209350;-73
2022/04/13 11:42:26;;;;;;;11.52;3.15;;;21.30;72.50;;;;;;4938988;28;20046;-74
2022/04/13 11:45:02;;;;;;;13.05;3.20;;;20.50;77.40;;;;;;4999947;28;112253;-73
2022/04/13 11:47:49;;;;;;;12.88;3.83;;;20.50;81.80;;;;;;4993145;28;20103;-72
2022/04/13 11:50:16;;;;;;;13.82;4.22;;;20.30;87.30;;;;;;4986908;28;267333;-74
2022/04/13 11:53:05;;;;;;;14.90;6.60;;;20.00;91.00;;;;;;4980934;28;20052;-74
2022/04/13 11:55:37;;;;;;;18.27;7.70;;;19.70;96.20;;;;;;4962657;28;99722;-73
2022/04/13 11:58:09;;;;;;;17.65;6.90;;;19.40;97.70;;;;;;5016879;28;20050;-73
2022/04/13 12:00:35;;;;;;;14.55;5.68;;;19.30;98.40;;;;;;4951921;28;271675;-73
2022/04/13 12:03:03;;;;;;;15.63;6.22;;;19.30;98.60;;;;;;5001241;28;20114;-73
2022/04/13 12:05:30;;;;;;;14.43;5.88;;;19.30;98.70;;;;;;4966715;28;144832;-71
2022/04/13 12:07:58;;;;;;;14.93;4.28;;;19.50;98.60;;;;;;4974029;28;20034;-74
2022/04/13 12:10:25;;;;;;;9.68;2.05;;;19.40;96.70;;;;;;4991301;28;266298;-74
2022/04/13 12:12:55;;;;;;;10.30;2.35;;;19.00;95.10;;;;;;4975586;28;20534;-73
2022/04/13 12:15:23;;;;;;;10.75;2.47;;;19.00;95.50;;;;;;4996047;28;272879;-73
2022/04/13 12:17:49;;;;;;;11.32;3.10;;;19.40;95.50;;;;;;4975748;28;20037;-73
2022/04/13 12:20:28;;;;;;;11.43;2.97;;;19.40;95.60;;;;;;4993778;28;257564;-73
2022/04/13 12:22:54;;;;;;;15.52;4.13;;;19.60;95.80;;;;;;4947384;28;20045;-72
2022/04/13 12:25:20;;;;;;;14.30;3.47;;;19.50;96.20;;;;;;4997361;28;253841;-73
2022/04/13 12:28:05;;;;;;;13.52;4.10;;;19.40;96.20;;;;;;4958903;28;20957;-72
2022/04/13 12:30:31;;;;;;;14.45;4.05;;;19.00;96.40;;;;;;4959283;28;171454;-72
2022/04/13 12:32:57;;;;;;;13.38;3.63;;;18.80;96.60;;;;;;4995365;28;20054;-72